createdAt,value
2022-09-14T00:01:08.226Z,7.83
2022-09-14T00:03:38.265Z,7.73
2022-09-14T00:06:09.617Z,6.73
2022-09-14T00:08:36.888Z,8.33
2022-09-14T00:11:10.012Z,7.00
2022-09-14T00:13:37.610Z,8.33
2022-09-14T00:16:06.345Z,8.83
2022-09-14T00:18:34.875Z,7.47
2022-09-14T00:21:03.719Z,9.00
2022-09-14T00:23:30.848Z,7.03
2022-09-14T00:26:06.612Z,7.23
2022-09-14T00:29:04.330Z,8.80
2022-09-14T00:31:33.084Z,7.53
2022-09-14T00:34:01.241Z,7.37
2022-09-14T00:36:29.509Z,9.30
2022-09-14T00:38:57.052Z,8.00
2022-09-14T00:41:25.999Z,7.17
2022-09-14T00:44:27.940Z,6.80
2022-09-14T00:47:02.239Z,7.80
2022-09-14T00:49:35.035Z,8.20
2022-09-14T00:52:18.333Z,7.30
2022-09-14T00:55:04.231Z,6.60
2022-09-14T00:57:36.297Z,7.27
2022-09-14T01:00:05.874Z,7.40
2022-09-14T01:02:33.234Z,8.57
2022-09-14T01:05:00.882Z,6.90
2022-09-14T01:07:45.920Z,9.93
2022-09-14T01:10:21.824Z,8.67
2022-09-14T01:13:15.856Z,8.20
2022-09-14T01:16:07.869Z,7.10
2022-09-14T01:18:52.687Z,7.00
2022-09-14T01:21:24.613Z,7.17
2022-09-14T01:24:03.223Z,9.17
2022-09-14T01:26:51.487Z,7.47
2022-09-14T01:29:25.348Z,6.80
2022-09-14T01:32:08.472Z,7.57
2022-09-14T01:34:45.242Z,7.00
2022-09-14T01:37:19.358Z,8.07
2022-09-14T01:39:51.949Z,8.90
2022-09-14T01:42:22.481Z,11.17
2022-09-14T01:44:55.302Z,6.93
2022-09-14T01:47:29.141Z,7.87
2022-09-14T01:50:12.851Z,7.47
2022-09-14T01:52:51.357Z,8.80
2022-09-14T01:55:24.598Z,7.67
2022-09-14T01:57:57.492Z,8.23
2022-09-14T02:00:24.274Z,6.40
2022-09-14T02:03:04.737Z,7.90
2022-09-14T02:05:40.959Z,6.90
2022-09-14T02:08:08.767Z,7.77
2022-09-14T02:10:35.610Z,6.10
2022-09-14T02:13:02.490Z,5.87
2022-09-14T02:15:29.189Z,5.97
2022-09-14T02:17:55.845Z,6.77
2022-09-14T02:20:28.867Z,5.83
2022-09-14T02:22:55.819Z,6.37
2022-09-14T02:25:22.552Z,5.67
2022-09-14T02:27:49.199Z,6.33
2022-09-14T02:30:16.855Z,6.93
2022-09-14T02:33:02.487Z,6.93
2022-09-14T02:35:39.645Z,6.90
2022-09-14T02:38:21.854Z,5.97
2022-09-14T02:41:12.808Z,7.90
2022-09-14T02:43:48.652Z,6.77
2022-09-14T02:46:28.337Z,6.97
2022-09-14T02:49:16.085Z,6.63
2022-09-14T02:51:57.767Z,6.20
2022-09-14T02:54:40.675Z,8.83
2022-09-14T02:57:07.397Z,8.80
2022-09-14T02:59:34.002Z,8.97
2022-09-14T03:02:01.690Z,6.60
2022-09-14T03:04:28.820Z,6.63
2022-09-14T03:06:55.510Z,6.83
2022-09-14T03:09:22.406Z,5.77
2022-09-14T03:11:48.996Z,5.70
2022-09-14T03:14:15.548Z,5.47
2022-09-14T03:16:42.120Z,7.40
2022-09-14T03:19:10.683Z,7.23
2022-09-14T03:21:38.797Z,8.43
2022-09-14T03:24:05.475Z,9.53
2022-09-14T03:26:36.615Z,8.77
2022-09-14T03:29:04.591Z,7.63
2022-09-14T03:31:32.070Z,8.63
2022-09-14T03:34:01.468Z,6.90
2022-09-14T03:36:30.332Z,7.77
2022-09-14T03:38:58.702Z,10.30
2022-09-14T03:41:32.370Z,6.57
2022-09-14T03:43:59.026Z,8.37
2022-09-14T03:46:26.181Z,6.43
2022-09-14T03:48:55.008Z,9.03
2022-09-14T03:51:21.700Z,5.83
2022-09-14T03:53:48.670Z,6.10
2022-09-14T03:56:18.173Z,5.80
2022-09-14T03:58:46.384Z,5.93
2022-09-14T04:01:16.070Z,7.40
2022-09-14T04:03:43.131Z,7.27
2022-09-14T04:06:10.287Z,5.40
2022-09-14T04:08:39.425Z,8.43
2022-09-14T04:11:26.862Z,6.27
2022-09-14T04:13:53.957Z,7.43
2022-09-14T04:16:21.950Z,9.73
2022-09-14T04:18:49.114Z,7.87
2022-09-14T04:21:18.332Z,8.13
2022-09-14T04:26:32.376Z,8.17
2022-09-14T04:29:00.068Z,7.23
2022-09-14T04:31:27.030Z,6.40
2022-09-14T04:33:56.115Z,9.13
2022-09-14T04:36:25.831Z,6.80
2022-09-14T04:38:54.328Z,7.03
2022-09-14T04:41:22.186Z,6.47
2022-09-14T04:43:50.645Z,5.90
2022-09-14T04:46:19.949Z,8.73
2022-09-14T04:48:47.191Z,6.33
2022-09-14T04:51:19.458Z,7.03
2022-09-14T04:53:48.068Z,8.67
2022-09-14T04:56:15.576Z,9.60
2022-09-14T04:58:51.459Z,8.20
2022-09-14T05:01:20.771Z,8.77
2022-09-14T05:03:47.789Z,6.97
2022-09-14T05:06:20.140Z,6.27
2022-09-14T05:08:47.717Z,6.80
2022-09-14T05:11:17.221Z,6.63
2022-09-14T05:13:48.992Z,7.07
2022-09-14T05:16:29.516Z,6.50
2022-09-14T05:19:01.125Z,6.73
2022-09-14T05:21:28.967Z,6.50
2022-09-14T05:23:57.380Z,5.97
2022-09-14T05:26:25.417Z,6.63
2022-09-14T05:28:54.230Z,7.03
2022-09-14T05:31:21.923Z,6.23
2022-09-14T05:33:48.573Z,8.73
2022-09-14T05:36:15.656Z,8.27
2022-09-14T05:38:42.710Z,6.27
2022-09-14T05:41:12.385Z,7.63
2022-09-14T05:43:40.041Z,8.93
2022-09-14T05:46:12.235Z,6.03
2022-09-14T05:48:39.969Z,8.00
2022-09-14T05:51:10.474Z,6.43
2022-09-14T05:53:37.281Z,6.33
2022-09-14T05:56:06.269Z,6.13
2022-09-14T05:58:33.258Z,6.60
2022-09-14T06:01:17.095Z,6.73
2022-09-14T06:03:44.631Z,7.50
2022-09-14T06:06:13.147Z,7.20
2022-09-14T06:08:40.180Z,5.13
2022-09-14T06:11:09.532Z,6.27
2022-09-14T06:13:37.474Z,8.10
2022-09-14T06:16:06.453Z,5.53
2022-09-14T06:18:37.602Z,6.17
2022-09-14T06:21:05.068Z,7.17
2022-09-14T06:23:32.704Z,5.40
2022-09-14T06:26:01.083Z,6.67
2022-09-14T06:28:29.124Z,4.90
2022-09-14T06:30:56.239Z,4.90
2022-09-14T06:33:23.136Z,5.73
2022-09-14T06:36:01.884Z,5.07
2022-09-14T06:38:29.693Z,5.40
2022-09-14T06:40:58.580Z,6.50
2022-09-14T06:43:31.847Z,5.53
2022-09-14T06:46:04.077Z,4.93
2022-09-14T06:48:33.901Z,6.10
2022-09-14T06:51:01.109Z,6.23
2022-09-14T06:53:27.695Z,8.27
2022-09-14T06:55:59.359Z,4.50
2022-09-14T06:58:25.945Z,5.53
2022-09-14T07:00:52.554Z,5.00
2022-09-14T07:03:19.134Z,4.57
2022-09-14T07:05:45.824Z,6.40
2022-09-14T07:08:12.632Z,5.87
2022-09-14T07:10:39.334Z,7.47
2022-09-14T07:13:05.940Z,5.20
2022-09-14T07:15:33.290Z,8.87
2022-09-14T07:17:59.871Z,5.87
2022-09-14T07:20:26.439Z,5.97
2022-09-14T07:22:53.025Z,7.77
2022-09-14T07:25:19.676Z,6.13
2022-09-14T07:27:46.332Z,5.40
2022-09-14T07:30:13.123Z,5.20
2022-09-14T07:32:40.382Z,4.67
2022-09-14T07:35:08.132Z,7.07
2022-09-14T07:37:34.741Z,5.27
2022-09-14T07:40:01.700Z,10.40
2022-09-14T07:42:28.337Z,9.90
2022-09-14T07:44:55.043Z,6.73
2022-09-14T07:47:21.686Z,5.60
2022-09-14T07:49:48.347Z,5.60
2022-09-14T07:52:14.982Z,4.43
2022-09-14T07:54:53.753Z,6.00
2022-09-14T07:57:33.968Z,5.70
2022-09-14T08:00:08.823Z,5.10
2022-09-14T08:02:37.870Z,4.30
2022-09-14T08:05:04.878Z,5.13
2022-09-14T08:07:31.523Z,5.97
2022-09-14T08:09:58.121Z,5.47
2022-09-14T08:12:25.140Z,7.07
2022-09-14T08:14:53.159Z,7.00
2022-09-14T08:17:22.211Z,6.37
2022-09-14T08:19:48.840Z,7.50
2022-09-14T08:22:15.615Z,6.37
2022-09-14T08:24:42.477Z,7.20
2022-09-14T08:27:12.159Z,4.73
2022-09-14T08:29:39.547Z,4.43
2022-09-14T08:32:06.283Z,4.87
2022-09-14T08:34:32.962Z,5.33
2022-09-14T08:36:59.654Z,4.73
2022-09-14T08:39:26.304Z,5.07
2022-09-14T08:41:58.548Z,4.33
2022-09-14T08:44:35.841Z,5.80
2022-09-14T08:47:17.235Z,3.83
2022-09-14T08:50:06.377Z,6.27
2022-09-14T08:52:43.373Z,4.87
2022-09-14T08:55:36.071Z,6.10
2022-09-14T08:58:24.655Z,7.27
2022-09-14T09:01:00.814Z,6.97
2022-09-14T09:04:05.100Z,5.80
2022-09-14T09:06:52.835Z,4.70
2022-09-14T09:09:52.292Z,6.13
2022-09-14T09:12:32.761Z,5.67
2022-09-14T09:15:14.903Z,6.73
2022-09-14T09:17:46.645Z,5.20
2022-09-14T09:20:24.063Z,9.40
2022-09-14T09:22:54.145Z,5.77
2022-09-14T09:25:24.062Z,5.30
2022-09-14T09:27:54.450Z,4.67
2022-09-14T09:30:21.065Z,7.73
2022-09-14T09:32:47.929Z,7.10
2022-09-14T09:35:22.172Z,5.93
2022-09-14T09:37:48.837Z,7.33
2022-09-14T09:40:18.574Z,6.83
2022-09-14T09:43:08.947Z,7.93
2022-09-14T09:45:51.509Z,6.93
2022-09-14T09:48:22.520Z,8.27
2022-09-14T09:51:04.142Z,6.23
2022-09-14T09:53:32.618Z,7.87
2022-09-14T09:55:59.505Z,6.70
2022-09-14T09:58:34.942Z,6.73
2022-09-14T10:01:26.938Z,7.07
2022-09-14T10:04:03.035Z,7.60
2022-09-14T10:06:30.423Z,6.03
2022-09-14T10:08:58.117Z,5.77
2022-09-14T10:11:27.561Z,7.07
2022-09-14T10:13:54.210Z,5.93
2022-09-14T10:16:21.193Z,6.77
2022-09-14T10:18:50.373Z,6.80
2022-09-14T10:21:22.343Z,7.87
2022-09-14T10:24:07.164Z,6.53
2022-09-14T10:26:35.881Z,6.30
2022-09-14T10:29:56.017Z,6.43
2022-09-14T10:32:25.561Z,7.40
2022-09-14T10:34:52.715Z,6.77
2022-09-14T10:37:32.096Z,7.53
2022-09-14T10:40:18.315Z,9.53
2022-09-14T10:43:00.797Z,6.53
2022-09-14T10:46:00.166Z,7.53
2022-09-14T10:48:50.076Z,10.07
2022-09-14T10:51:31.162Z,7.97
2022-09-14T10:54:12.881Z,8.17
2022-09-14T10:57:04.200Z,7.77
2022-09-14T10:59:49.712Z,7.97
2022-09-14T11:02:40.408Z,8.50
2022-09-14T11:05:22.528Z,8.10
2022-09-14T11:08:12.162Z,8.50
2022-09-14T11:11:00.983Z,10.40
2022-09-14T11:13:46.051Z,9.20
2022-09-14T11:16:25.727Z,10.20
2022-09-14T11:18:58.379Z,9.40
2022-09-14T11:21:36.794Z,9.07
2022-09-14T11:24:40.182Z,7.73
2022-09-14T11:27:16.124Z,7.90
2022-09-14T11:30:01.156Z,8.87
2022-09-14T11:32:41.619Z,8.73
2022-09-14T11:35:34.117Z,9.23
2022-09-14T11:38:08.275Z,8.87
2022-09-14T11:40:41.573Z,8.10
2022-09-14T11:43:11.649Z,8.40
2022-09-14T11:45:52.544Z,7.97
2022-09-14T11:48:46.443Z,11.13
2022-09-14T11:51:22.413Z,11.23
2022-09-14T11:53:50.736Z,11.33
2022-09-14T11:56:26.436Z,12.53
2022-09-14T11:58:56.202Z,13.00
2022-09-14T12:01:31.105Z,9.17
2022-09-14T12:03:59.843Z,9.67
2022-09-14T12:06:35.654Z,10.03
2022-09-14T12:09:17.117Z,10.23
2022-09-14T12:11:45.235Z,11.27
2022-09-14T12:14:31.301Z,11.67
2022-09-14T12:17:41.715Z,11.80
2022-09-14T12:20:43.129Z,12.57
2022-09-14T12:23:22.658Z,12.37
2022-09-14T12:26:06.465Z,13.77
2022-09-14T12:28:36.180Z,12.80
2022-09-14T12:31:03.024Z,10.83
2022-09-14T12:33:33.204Z,10.43
2022-09-14T12:36:06.686Z,10.90
2022-09-14T12:39:03.006Z,11.40
2022-09-14T12:41:35.957Z,11.53
2022-09-14T12:44:04.601Z,11.40
2022-09-14T12:46:35.266Z,12.33
2022-09-14T12:49:14.233Z,10.43
2022-09-14T12:51:48.788Z,12.80
2022-09-14T12:54:46.056Z,11.77
2022-09-14T12:57:19.835Z,10.80
2022-09-14T13:00:04.802Z,11.90
2022-09-14T13:02:47.598Z,12.47
2022-09-14T13:05:26.456Z,12.35
2022-09-14T13:07:54.928Z,11.83
2022-09-14T13:10:33.609Z,9.70
2022-09-14T13:13:02.775Z,10.55
2022-09-14T13:15:39.294Z,12.23
2022-09-14T13:18:28.259Z,11.07
2022-09-14T13:21:00.138Z,10.47
2022-09-14T13:23:38.924Z,14.13
2022-09-14T13:26:21.646Z,10.68
2022-09-14T13:28:51.527Z,11.07
2022-09-14T13:31:31.563Z,12.83
2022-09-14T13:33:59.675Z,10.60
2022-09-14T13:36:36.597Z,12.97
2022-09-14T13:39:04.608Z,10.68
2022-09-14T13:41:32.171Z,10.90
2022-09-14T13:44:00.150Z,12.40
2022-09-14T13:46:27.768Z,12.65
2022-09-14T13:48:55.660Z,10.30
2022-09-14T13:51:31.334Z,10.47
2022-09-14T13:54:15.690Z,10.77
2022-09-14T13:56:44.509Z,10.40
2022-09-14T13:59:21.870Z,10.95
2022-09-14T14:01:58.744Z,9.27
2022-09-14T14:04:35.372Z,10.50
2022-09-14T14:07:04.898Z,9.97
2022-09-14T14:09:50.630Z,12.80
2022-09-14T14:12:37.577Z,13.50
2022-09-14T14:15:24.120Z,14.03
2022-09-14T14:17:52.048Z,15.47
2022-09-14T14:20:33.517Z,17.40
2022-09-14T14:23:06.034Z,13.10
2022-09-14T14:25:47.329Z,14.60
2022-09-14T14:28:27.743Z,16.20
2022-09-14T14:30:56.020Z,13.87
2022-09-14T14:33:23.536Z,13.83
2022-09-14T14:35:52.777Z,20.77
2022-09-14T14:38:19.878Z,12.27
2022-09-14T14:40:47.151Z,19.90
2022-09-14T14:43:21.626Z,15.53
2022-09-14T14:45:49.729Z,12.47
2022-09-14T14:48:18.257Z,12.93
2022-09-14T14:50:46.496Z,10.37
2022-09-14T14:53:14.313Z,13.77
2022-09-14T14:55:41.097Z,8.30
2022-09-14T14:58:15.359Z,7.07
2022-09-14T15:00:42.106Z,9.17
2022-09-14T15:03:08.974Z,9.67
2022-09-14T15:05:40.337Z,5.73
2022-09-14T15:08:06.967Z,7.70
2022-09-14T15:10:33.581Z,8.40
2022-09-14T15:15:32.073Z,7.60
2022-09-14T15:20:31.570Z,8.37
2022-09-14T15:22:58.191Z,5.93
2022-09-14T15:25:24.764Z,4.33
2022-09-14T15:27:51.392Z,4.23
2022-09-14T15:30:18.009Z,4.50
2022-09-14T15:32:44.672Z,5.27
2022-09-14T15:35:13.690Z,6.27
2022-09-14T15:37:40.746Z,6.30
2022-09-14T15:40:07.999Z,4.13
2022-09-14T15:42:34.732Z,5.80
2022-09-14T15:45:01.365Z,3.80
2022-09-14T15:47:29.241Z,3.43
2022-09-14T15:49:58.355Z,6.07
2022-09-14T15:52:25.330Z,7.50
2022-09-14T15:54:51.936Z,3.10
2022-09-14T15:57:18.607Z,3.97
2022-09-14T15:59:45.202Z,5.07
2022-09-14T16:02:16.876Z,3.87
2022-09-14T16:04:43.569Z,4.83
2022-09-14T16:07:10.365Z,2.73
2022-09-14T16:09:38.681Z,2.53
2022-09-14T16:12:06.294Z,3.70
2022-09-14T16:14:32.967Z,4.10
2022-09-14T16:17:00.121Z,4.77
2022-09-14T16:19:27.490Z,6.47
2022-09-14T16:21:54.754Z,4.53
2022-09-14T16:24:24.205Z,3.00
2022-09-14T16:26:51.406Z,1.90
2022-09-14T16:29:20.124Z,1.97
2022-09-14T16:31:48.456Z,1.70
2022-09-14T16:34:24.499Z,3.33
2022-09-14T16:36:51.735Z,2.10
2022-09-14T16:39:22.348Z,2.40
2022-09-14T16:41:49.093Z,1.70
2022-09-14T16:44:26.195Z,1.93
2022-09-14T16:46:54.178Z,3.43
2022-09-14T16:49:24.983Z,2.57
2022-09-14T16:51:54.205Z,1.93
2022-09-14T16:54:22.693Z,1.80
2022-09-14T16:56:49.613Z,3.57
2022-09-14T16:59:17.714Z,3.13
2022-09-14T17:01:47.097Z,4.60
2022-09-14T17:04:19.533Z,1.50
2022-09-14T17:06:46.125Z,2.03
2022-09-14T17:09:18.868Z,3.57
2022-09-14T17:11:46.041Z,1.70
2022-09-14T17:14:21.516Z,4.00
2022-09-14T17:16:49.676Z,3.33
2022-09-14T17:19:16.793Z,2.63
2022-09-14T17:21:45.655Z,2.40
2022-09-14T17:24:14.107Z,1.80
2022-09-14T17:26:41.502Z,7.10
2022-09-14T17:29:09.423Z,4.40
2022-09-14T17:31:39.708Z,2.40
2022-09-14T17:34:08.138Z,3.20
2022-09-14T17:36:35.111Z,2.83
2022-09-14T17:39:06.763Z,2.33
2022-09-14T17:41:38.495Z,2.70
2022-09-14T17:44:06.029Z,3.00
2022-09-14T17:46:32.895Z,3.20
2022-09-14T17:49:00.587Z,2.20
2022-09-14T17:51:28.989Z,2.27
2022-09-14T17:53:57.648Z,4.03
2022-09-14T17:56:26.849Z,2.63
2022-09-14T17:59:11.813Z,1.83
2022-09-14T18:01:38.713Z,3.07
2022-09-14T18:04:07.689Z,3.50
2022-09-14T18:06:43.840Z,2.00
2022-09-14T18:09:15.589Z,2.10
2022-09-14T18:11:42.823Z,4.40
2022-09-14T18:14:12.740Z,3.73
2022-09-14T18:16:39.907Z,3.27
2022-09-14T18:19:06.564Z,1.77
2022-09-14T18:21:33.400Z,4.27
2022-09-14T18:24:00.032Z,1.87
2022-09-14T18:26:26.789Z,4.10
2022-09-14T18:28:55.955Z,2.73
2022-09-14T18:31:23.134Z,1.43
2022-09-14T18:33:55.226Z,4.07
2022-09-14T18:36:22.490Z,4.93
2022-09-14T18:38:49.839Z,2.23
2022-09-14T18:41:17.672Z,3.37
2022-09-14T18:43:51.542Z,2.63
2022-09-14T18:46:18.719Z,3.47
2022-09-14T18:48:46.533Z,6.43
2022-09-14T18:51:14.267Z,4.50
2022-09-14T18:53:41.697Z,7.70
2022-09-14T18:56:10.803Z,2.80
2022-09-14T18:58:40.322Z,2.77
2022-09-14T19:01:08.418Z,6.00
2022-09-14T19:03:37.515Z,4.20
2022-09-14T19:06:07.243Z,3.87
2022-09-14T19:08:34.996Z,2.80
2022-09-14T19:11:10.680Z,3.23
2022-09-14T19:13:37.834Z,3.40
2022-09-14T19:16:08.909Z,1.90
2022-09-14T19:18:36.090Z,5.07
2022-09-14T19:21:07.622Z,3.57
2022-09-14T19:23:36.349Z,1.73
2022-09-14T19:26:08.752Z,3.23
2022-09-14T19:28:36.308Z,3.20
2022-09-14T19:31:13.170Z,3.37
2022-09-14T19:33:45.092Z,2.40
2022-09-14T19:36:15.485Z,3.23
2022-09-14T19:38:42.254Z,5.67
2022-09-14T19:41:09.289Z,2.57
2022-09-14T19:43:36.303Z,3.10
2022-09-14T19:46:17.254Z,5.87
2022-09-14T19:48:44.530Z,2.73
2022-09-14T19:51:19.844Z,3.50
2022-09-14T19:53:48.678Z,4.20
2022-09-14T19:56:19.386Z,3.53
2022-09-14T19:58:48.960Z,4.77
2022-09-14T20:01:20.076Z,2.60
2022-09-14T20:03:48.492Z,2.47
2022-09-14T20:06:23.356Z,2.30
2022-09-14T20:08:52.711Z,3.30
2022-09-14T20:11:21.101Z,5.67
2022-09-14T20:13:48.430Z,2.40
2022-09-14T20:16:18.446Z,2.50
2022-09-14T20:18:46.363Z,2.67
2022-09-14T20:21:18.813Z,2.30
2022-09-14T20:24:11.509Z,3.90
2022-09-14T20:26:32.903Z,4.60
2022-09-14T20:29:01.086Z,2.47
2022-09-14T20:31:29.438Z,3.47
2022-09-14T20:33:57.236Z,2.67
2022-09-14T20:36:28.698Z,2.80
2022-09-14T20:38:57.353Z,3.00
2022-09-14T20:41:29.366Z,3.87
2022-09-14T20:43:56.276Z,6.47
2022-09-14T20:46:28.253Z,2.53
2022-09-14T20:48:55.057Z,5.63
2022-09-14T20:51:22.899Z,4.00
2022-09-14T20:53:49.670Z,6.10
2022-09-14T20:56:27.344Z,5.73
2022-09-14T20:58:57.394Z,3.50
2022-09-14T21:01:26.072Z,2.43
2022-09-14T21:03:53.578Z,2.50
2022-09-14T21:06:22.744Z,3.30
2022-09-14T21:08:49.861Z,2.40
2022-09-14T21:11:24.405Z,5.03
2022-09-14T21:13:53.116Z,2.00
2022-09-14T21:16:22.836Z,3.40
2022-09-14T21:19:00.566Z,2.53
2022-09-14T21:21:28.226Z,3.03
2022-09-14T21:23:56.919Z,2.40
2022-09-14T21:26:25.549Z,3.77
2022-09-14T21:28:57.471Z,2.50
2022-09-14T21:31:25.207Z,2.40
2022-09-14T21:33:58.808Z,3.60
2022-09-14T21:36:34.744Z,4.13
2022-09-14T21:39:10.869Z,2.53
2022-09-14T21:41:39.108Z,2.40
2022-09-14T21:44:06.548Z,4.77
2022-09-14T21:46:33.378Z,3.73
2022-09-14T21:49:00.214Z,3.93
2022-09-14T21:51:33.149Z,3.47
2022-09-14T21:54:05.542Z,2.10
2022-09-14T21:56:36.670Z,4.13
2022-09-14T21:59:06.615Z,3.57
2022-09-14T22:01:33.823Z,4.63
2022-09-14T22:04:02.139Z,3.20
2022-09-14T22:06:31.282Z,2.47
2022-09-14T22:08:59.790Z,2.40
2022-09-14T22:11:31.038Z,1.83
2022-09-14T22:14:03.520Z,3.70
2022-09-14T22:16:34.032Z,3.43
2022-09-14T22:19:04.081Z,4.60
2022-09-14T22:21:33.935Z,3.33
2022-09-14T22:24:02.852Z,3.27
2022-09-14T22:26:31.995Z,5.73
2022-09-14T22:28:59.477Z,2.50
2022-09-14T22:31:27.707Z,2.70
2022-09-14T22:33:55.841Z,3.70
2022-09-14T22:36:23.074Z,2.17
2022-09-14T22:38:49.967Z,4.30
2022-09-14T22:41:19.540Z,3.43
2022-09-14T22:43:46.763Z,3.70
2022-09-14T22:46:14.906Z,6.87
2022-09-14T22:48:43.522Z,4.20
2022-09-14T22:51:16.078Z,5.40
2022-09-14T22:53:43.189Z,2.63
2022-09-14T22:56:15.796Z,3.13
2022-09-14T22:58:43.463Z,8.43
2022-09-14T23:01:31.264Z,2.57
2022-09-14T23:04:00.539Z,2.60
2022-09-14T23:06:29.286Z,2.83
2022-09-14T23:08:58.707Z,2.60
2022-09-14T23:11:25.304Z,1.90
2022-09-14T23:13:53.105Z,13.47
2022-09-14T23:16:23.195Z,2.97
2022-09-14T23:18:51.864Z,6.87
2022-09-14T23:21:18.957Z,2.73
2022-09-14T23:23:50.097Z,8.70
2022-09-14T23:26:16.684Z,3.57
2022-09-14T23:28:43.287Z,3.07
2022-09-14T23:31:10.355Z,4.63
2022-09-14T23:33:37.278Z,2.33
2022-09-14T23:36:04.100Z,2.07
2022-09-14T23:38:30.639Z,2.00
2022-09-14T23:40:58.387Z,2.33
2022-09-14T23:43:25.200Z,4.83
2022-09-14T23:45:51.797Z,3.97
2022-09-14T23:48:18.408Z,3.17
2022-09-14T23:50:45.038Z,3.40
2022-09-14T23:53:11.637Z,5.30
2022-09-14T23:55:38.241Z,4.13
2022-09-14T23:58:04.939Z,2.17
